sensor_id;sensor_type;location;lat;lon;timestamp;P1;durP1;ratioP1;P2;durP2;ratioP2
15043;SDS011;7619;48.562;8.910;2022-12-13T00:01:51;10.30;;;7.03;;
15043;SDS011;7619;48.562;8.910;2022-12-13T00:04:21;12.07;;;8.10;;
15043;SDS011;7619;48.562;8.910;2022-12-13T00:06:51;16.93;;;8.20;;
15043;SDS011;7619;48.562;8.910;2022-12-13T00:09:21;24.70;;;8.17;;
15043;SDS011;7619;48.562;8.910;2022-12-13T00:11:49;13.47;;;7.97;;
15043;SDS011;7619;48.562;8.910;2022-12-13T00:14:19;15.57;;;7.70;;
15043;SDS011;7619;48.562;8.910;2022-12-13T00:16:47;17.63;;;7.57;;
15043;SDS011;7619;48.562;8.910;2022-12-13T00:19:16;15.97;;;6.93;;
15043;SDS011;7619;48.562;8.910;2022-12-13T00:21:45;16.30;;;7.97;;
15043;SDS011;7619;48.562;8.910;2022-12-13T00:24:15;17.07;;;8.83;;
15043;SDS011;7619;48.562;8.910;2022-12-13T00:26:43;16.00;;;7.90;;
15043;SDS011;7619;48.562;8.910;2022-12-13T00:29:11;15.57;;;7.70;;
15043;SDS011;7619;48.562;8.910;2022-12-13T00:31:39;16.20;;;7.87;;
15043;SDS011;7619;48.562;8.910;2022-12-13T00:34:08;12.97;;;8.13;;
15043;SDS011;7619;48.562;8.910;2022-12-13T00:36:38;14.63;;;8.57;;
15043;SDS011;7619;48.562;8.910;2022-12-13T00:39:05;11.07;;;6.93;;
15043;SDS011;7619;48.562;8.910;2022-12-13T00:41:36;9.40;;;6.30;;
15043;SDS011;7619;48.562;8.910;2022-12-13T00:44:06;22.93;;;8.47;;
15043;SDS011;7619;48.562;8.910;2022-12-13T00:46:36;10.73;;;6.43;;
15043;SDS011;7619;48.562;8.910;2022-12-13T00:49:06;15.03;;;7.03;;
15043;SDS011;7619;48.562;8.910;2022-12-13T00:51:36;18.63;;;8.70;;
15043;SDS011;7619;48.562;8.910;2022-12-13T00:54:06;12.73;;;5.80;;
15043;SDS011;7619;48.562;8.910;2022-12-13T00:56:35;19.03;;;9.47;;
15043;SDS011;7619;48.562;8.910;2022-12-13T00:59:03;15.43;;;8.33;;
15043;SDS011;7619;48.562;8.910;2022-12-13T01:01:33;17.83;;;7.87;;
15043;SDS011;7619;48.562;8.910;2022-12-13T01:04:03;13.87;;;7.50;;
15043;SDS011;7619;48.562;8.910;2022-12-13T01:06:35;11.83;;;7.37;;
15043;SDS011;7619;48.562;8.910;2022-12-13T01:09:11;15.23;;;7.10;;
15043;SDS011;7619;48.562;8.910;2022-12-13T01:11:34;12.73;;;7.50;;
15043;SDS011;7619;48.562;8.910;2022-12-13T01:14:02;9.50;;;6.03;;
15043;SDS011;7619;48.562;8.910;2022-12-13T01:16:30;11.73;;;7.40;;
15043;SDS011;7619;48.562;8.910;2022-12-13T01:18:59;16.10;;;7.47;;
15043;SDS011;7619;48.562;8.910;2022-12-13T01:21:28;11.73;;;7.20;;
15043;SDS011;7619;48.562;8.910;2022-12-13T01:24:01;15.30;;;6.77;;
15043;SDS011;7619;48.562;8.910;2022-12-13T01:26:29;12.50;;;6.93;;
15043;SDS011;7619;48.562;8.910;2022-12-13T01:28:58;15.00;;;7.27;;
15043;SDS011;7619;48.562;8.910;2022-12-13T01:31:26;11.77;;;6.20;;
15043;SDS011;7619;48.562;8.910;2022-12-13T01:33:55;18.23;;;7.53;;
15043;SDS011;7619;48.562;8.910;2022-12-13T01:36:23;15.93;;;7.60;;
15043;SDS011;7619;48.562;8.910;2022-12-13T01:38:51;11.40;;;6.43;;
15043;SDS011;7619;48.562;8.910;2022-12-13T01:41:20;14.10;;;7.30;;
15043;SDS011;7619;48.562;8.910;2022-12-13T01:43:50;14.33;;;7.10;;
15043;SDS011;7619;48.562;8.910;2022-12-13T01:46:22;15.83;;;7.17;;
15043;SDS011;7619;48.562;8.910;2022-12-13T01:48:54;16.93;;;8.43;;
15043;SDS011;7619;48.562;8.910;2022-12-13T01:51:23;9.27;;;7.07;;
15043;SDS011;7619;48.562;8.910;2022-12-13T01:53:55;15.23;;;8.63;;
15043;SDS011;7619;48.562;8.910;2022-12-13T01:56:24;19.83;;;7.23;;
15043;SDS011;7619;48.562;8.910;2022-12-13T01:58:52;15.00;;;6.77;;
15043;SDS011;7619;48.562;8.910;2022-12-13T02:01:23;10.77;;;5.53;;
15043;SDS011;7619;48.562;8.910;2022-12-13T02:03:51;17.37;;;7.83;;
15043;SDS011;7619;48.562;8.910;2022-12-13T02:06:22;15.87;;;8.37;;
15043;SDS011;7619;48.562;8.910;2022-12-13T02:08:54;16.87;;;7.70;;
15043;SDS011;7619;48.562;8.910;2022-12-13T02:11:23;12.10;;;6.80;;
15043;SDS011;7619;48.562;8.910;2022-12-13T02:13:51;20.90;;;7.53;;
15043;SDS011;7619;48.562;8.910;2022-12-13T02:16:22;11.50;;;6.97;;
15043;SDS011;7619;48.562;8.910;2022-12-13T02:18:55;16.50;;;7.77;;
15043;SDS011;7619;48.562;8.910;2022-12-13T02:21:28;14.13;;;6.87;;
15043;SDS011;7619;48.562;8.910;2022-12-13T02:27:01;14.20;;;7.00;;
15043;SDS011;7619;48.562;8.910;2022-12-13T02:32:17;11.50;;;5.87;;
15043;SDS011;7619;48.562;8.910;2022-12-13T02:34:46;12.17;;;6.53;;
15043;SDS011;7619;48.562;8.910;2022-12-13T02:37:19;14.47;;;7.20;;
15043;SDS011;7619;48.562;8.910;2022-12-13T02:39:47;15.23;;;8.47;;
15043;SDS011;7619;48.562;8.910;2022-12-13T02:42:21;15.70;;;6.90;;
15043;SDS011;7619;48.562;8.910;2022-12-13T02:44:50;12.93;;;6.20;;
15043;SDS011;7619;48.562;8.910;2022-12-13T02:47:19;10.93;;;5.43;;
15043;SDS011;7619;48.562;8.910;2022-12-13T02:49:53;15.27;;;6.73;;
15043;SDS011;7619;48.562;8.910;2022-12-13T02:52:20;13.00;;;6.30;;
15043;SDS011;7619;48.562;8.910;2022-12-13T02:54:53;10.67;;;5.93;;
15043;SDS011;7619;48.562;8.910;2022-12-13T02:57:27;9.77;;;5.77;;
15043;SDS011;7619;48.562;8.910;2022-12-13T02:59:55;9.43;;;6.70;;
15043;SDS011;7619;48.562;8.910;2022-12-13T03:02:28;17.50;;;7.47;;
15043;SDS011;7619;48.562;8.910;2022-12-13T03:04:58;13.10;;;6.37;;
15043;SDS011;7619;48.562;8.910;2022-12-13T03:07:50;9.17;;;5.63;;
15043;SDS011;7619;48.562;8.910;2022-12-13T03:10:20;8.07;;;5.60;;
15043;SDS011;7619;48.562;8.910;2022-12-13T03:12:49;10.43;;;6.33;;
15043;SDS011;7619;48.562;8.910;2022-12-13T03:15:38;9.53;;;5.10;;
15043;SDS011;7619;48.562;8.910;2022-12-13T03:18:13;10.73;;;6.27;;
15043;SDS011;7619;48.562;8.910;2022-12-13T03:20:45;12.63;;;7.63;;
15043;SDS011;7619;48.562;8.910;2022-12-13T03:23:16;12.70;;;6.47;;
15043;SDS011;7619;48.562;8.910;2022-12-13T03:25:46;13.40;;;5.73;;
15043;SDS011;7619;48.562;8.910;2022-12-13T03:28:18;8.90;;;6.47;;
15043;SDS011;7619;48.562;8.910;2022-12-13T03:30:47;16.90;;;7.47;;
15043;SDS011;7619;48.562;8.910;2022-12-13T03:33:16;16.53;;;7.60;;
15043;SDS011;7619;48.562;8.910;2022-12-13T03:35:45;15.43;;;6.10;;
15043;SDS011;7619;48.562;8.910;2022-12-13T03:38:14;12.07;;;5.30;;
15043;SDS011;7619;48.562;8.910;2022-12-13T03:40:43;13.17;;;6.30;;
15043;SDS011;7619;48.562;8.910;2022-12-13T03:43:13;10.87;;;6.80;;
15043;SDS011;7619;48.562;8.910;2022-12-13T03:45:40;6.10;;;4.87;;
15043;SDS011;7619;48.562;8.910;2022-12-13T03:48:09;11.57;;;5.90;;
15043;SDS011;7619;48.562;8.910;2022-12-13T03:50:40;13.80;;;5.77;;
15043;SDS011;7619;48.562;8.910;2022-12-13T03:53:09;15.83;;;5.83;;
15043;SDS011;7619;48.562;8.910;2022-12-13T03:55:40;9.27;;;5.30;;
15043;SDS011;7619;48.562;8.910;2022-12-13T03:58:11;17.97;;;7.43;;
15043;SDS011;7619;48.562;8.910;2022-12-13T04:00:40;13.40;;;5.63;;
15043;SDS011;7619;48.562;8.910;2022-12-13T04:03:08;10.93;;;6.13;;
15043;SDS011;7619;48.562;8.910;2022-12-13T04:05:36;12.00;;;5.87;;
15043;SDS011;7619;48.562;8.910;2022-12-13T04:08:05;15.67;;;6.27;;
15043;SDS011;7619;48.562;8.910;2022-12-13T04:10:34;10.00;;;6.13;;
15043;SDS011;7619;48.562;8.910;2022-12-13T04:13:03;9.77;;;6.50;;
15043;SDS011;7619;48.562;8.910;2022-12-13T04:15:50;13.67;;;5.43;;
15043;SDS011;7619;48.562;8.910;2022-12-13T04:18:18;9.87;;;6.07;;
15043;SDS011;7619;48.562;8.910;2022-12-13T04:20:47;11.40;;;5.63;;
15043;SDS011;7619;48.562;8.910;2022-12-13T04:23:15;9.80;;;4.73;;
15043;SDS011;7619;48.562;8.910;2022-12-13T04:25:43;11.33;;;6.27;;
15043;SDS011;7619;48.562;8.910;2022-12-13T04:28:13;12.00;;;5.50;;
15043;SDS011;7619;48.562;8.910;2022-12-13T04:30:43;8.50;;;4.70;;
15043;SDS011;7619;48.562;8.910;2022-12-13T04:33:13;7.87;;;5.63;;
15043;SDS011;7619;48.562;8.910;2022-12-13T04:35:41;8.60;;;4.90;;
15043;SDS011;7619;48.562;8.910;2022-12-13T04:38:09;10.37;;;6.57;;
15043;SDS011;7619;48.562;8.910;2022-12-13T04:40:39;12.97;;;6.10;;
15043;SDS011;7619;48.562;8.910;2022-12-13T04:43:07;15.20;;;5.90;;
15043;SDS011;7619;48.562;8.910;2022-12-13T04:45:35;8.67;;;5.13;;
15043;SDS011;7619;48.562;8.910;2022-12-13T04:48:04;8.20;;;5.83;;
15043;SDS011;7619;48.562;8.910;2022-12-13T04:50:33;11.43;;;6.30;;
15043;SDS011;7619;48.562;8.910;2022-12-13T04:53:03;8.77;;;4.50;;
15043;SDS011;7619;48.562;8.910;2022-12-13T04:55:31;11.00;;;6.10;;
15043;SDS011;7619;48.562;8.910;2022-12-13T04:57:59;12.77;;;6.20;;
15043;SDS011;7619;48.562;8.910;2022-12-13T05:00:27;7.90;;;5.13;;
15043;SDS011;7619;48.562;8.910;2022-12-13T05:02:55;6.70;;;4.57;;
15043;SDS011;7619;48.562;8.910;2022-12-13T05:05:24;9.80;;;5.13;;
15043;SDS011;7619;48.562;8.910;2022-12-13T05:07:54;10.20;;;5.43;;
15043;SDS011;7619;48.562;8.910;2022-12-13T05:10:22;14.27;;;6.87;;
15043;SDS011;7619;48.562;8.910;2022-12-13T05:15:27;8.57;;;5.60;;
15043;SDS011;7619;48.562;8.910;2022-12-13T05:17:58;9.43;;;4.47;;
15043;SDS011;7619;48.562;8.910;2022-12-13T05:20:28;14.33;;;5.17;;
15043;SDS011;7619;48.562;8.910;2022-12-13T05:22:57;11.63;;;6.57;;
15043;SDS011;7619;48.562;8.910;2022-12-13T05:25:26;8.73;;;6.37;;
15043;SDS011;7619;48.562;8.910;2022-12-13T05:28:03;10.90;;;6.70;;
15043;SDS011;7619;48.562;8.910;2022-12-13T05:30:32;12.93;;;5.20;;
15043;SDS011;7619;48.562;8.910;2022-12-13T05:33:03;14.73;;;5.93;;
15043;SDS011;7619;48.562;8.910;2022-12-13T05:35:32;12.27;;;6.90;;
15043;SDS011;7619;48.562;8.910;2022-12-13T05:38:01;6.17;;;4.83;;
15043;SDS011;7619;48.562;8.910;2022-12-13T05:40:32;12.00;;;5.97;;
15043;SDS011;7619;48.562;8.910;2022-12-13T05:43:00;12.63;;;5.93;;
15043;SDS011;7619;48.562;8.910;2022-12-13T05:45:29;11.90;;;7.13;;
15043;SDS011;7619;48.562;8.910;2022-12-13T05:47:58;16.80;;;7.37;;
15043;SDS011;7619;48.562;8.910;2022-12-13T05:50:27;13.80;;;5.87;;
15043;SDS011;7619;48.562;8.910;2022-12-13T05:52:56;10.33;;;6.63;;
15043;SDS011;7619;48.562;8.910;2022-12-13T05:55:25;10.17;;;6.07;;
15043;SDS011;7619;48.562;8.910;2022-12-13T05:57:54;11.53;;;6.50;;
15043;SDS011;7619;48.562;8.910;2022-12-13T06:00:24;17.23;;;6.83;;
15043;SDS011;7619;48.562;8.910;2022-12-13T06:02:53;14.93;;;7.00;;
15043;SDS011;7619;48.562;8.910;2022-12-13T06:05:22;10.80;;;6.53;;
15043;SDS011;7619;48.562;8.910;2022-12-13T06:07:53;15.43;;;7.63;;
15043;SDS011;7619;48.562;8.910;2022-12-13T06:10:22;11.67;;;5.93;;
15043;SDS011;7619;48.562;8.910;2022-12-13T06:12:51;14.07;;;8.37;;
15043;SDS011;7619;48.562;8.910;2022-12-13T06:15:20;19.87;;;7.07;;
15043;SDS011;7619;48.562;8.910;2022-12-13T06:17:49;16.13;;;6.63;;
15043;SDS011;7619;48.562;8.910;2022-12-13T06:20:18;18.73;;;7.87;;
15043;SDS011;7619;48.562;8.910;2022-12-13T06:22:48;16.57;;;8.27;;
15043;SDS011;7619;48.562;8.910;2022-12-13T06:25:17;14.63;;;7.13;;
15043;SDS011;7619;48.562;8.910;2022-12-13T06:27:46;17.73;;;10.37;;
15043;SDS011;7619;48.562;8.910;2022-12-13T06:30:15;11.27;;;7.13;;
15043;SDS011;7619;48.562;8.910;2022-12-13T06:32:47;13.80;;;7.83;;
15043;SDS011;7619;48.562;8.910;2022-12-13T06:35:16;16.70;;;8.30;;
15043;SDS011;7619;48.562;8.910;2022-12-13T06:37:45;14.20;;;7.40;;
15043;SDS011;7619;48.562;8.910;2022-12-13T06:40:15;12.73;;;7.40;;
15043;SDS011;7619;48.562;8.910;2022-12-13T06:42:45;12.27;;;6.93;;
15043;SDS011;7619;48.562;8.910;2022-12-13T06:45:14;12.40;;;8.03;;
15043;SDS011;7619;48.562;8.910;2022-12-13T06:47:43;16.07;;;8.80;;
15043;SDS011;7619;48.562;8.910;2022-12-13T06:50:11;12.60;;;7.40;;
15043;SDS011;7619;48.562;8.910;2022-12-13T06:52:41;14.00;;;7.03;;
15043;SDS011;7619;48.562;8.910;2022-12-13T06:55:11;15.63;;;8.77;;
15043;SDS011;7619;48.562;8.910;2022-12-13T06:57:40;17.03;;;9.27;;
15043;SDS011;7619;48.562;8.910;2022-12-13T07:00:10;18.23;;;9.60;;
15043;SDS011;7619;48.562;8.910;2022-12-13T07:02:40;10.40;;;6.27;;
15043;SDS011;7619;48.562;8.910;2022-12-13T07:05:09;12.17;;;7.00;;
15043;SDS011;7619;48.562;8.910;2022-12-13T07:07:38;12.20;;;7.03;;
15043;SDS011;7619;48.562;8.910;2022-12-13T07:10:08;17.03;;;8.77;;
15043;SDS011;7619;48.562;8.910;2022-12-13T07:12:37;14.40;;;7.47;;
15043;SDS011;7619;48.562;8.910;2022-12-13T07:15:07;14.83;;;7.73;;
15043;SDS011;7619;48.562;8.910;2022-12-13T07:17:37;14.17;;;7.33;;
15043;SDS011;7619;48.562;8.910;2022-12-13T07:20:08;14.40;;;7.60;;
15043;SDS011;7619;48.562;8.910;2022-12-13T07:22:40;8.63;;;6.50;;
15043;SDS011;7619;48.562;8.910;2022-12-13T07:25:09;13.63;;;8.63;;
15043;SDS011;7619;48.562;8.910;2022-12-13T07:27:38;13.00;;;8.27;;
15043;SDS011;7619;48.562;8.910;2022-12-13T07:30:08;15.43;;;10.10;;
15043;SDS011;7619;48.562;8.910;2022-12-13T07:32:38;13.77;;;8.43;;
15043;SDS011;7619;48.562;8.910;2022-12-13T07:35:07;18.77;;;9.17;;
15043;SDS011;7619;48.562;8.910;2022-12-13T07:37:36;14.47;;;7.57;;
15043;SDS011;7619;48.562;8.910;2022-12-13T07:40:06;13.43;;;6.93;;
15043;SDS011;7619;48.562;8.910;2022-12-13T07:42:37;13.70;;;7.50;;
15043;SDS011;7619;48.562;8.910;2022-12-13T07:45:07;25.47;;;7.10;;
15043;SDS011;7619;48.562;8.910;2022-12-13T07:47:45;14.10;;;7.47;;
15043;SDS011;7619;48.562;8.910;2022-12-13T07:50:15;11.17;;;6.60;;
15043;SDS011;7619;48.562;8.910;2022-12-13T07:52:46;13.20;;;7.27;;
15043;SDS011;7619;48.562;8.910;2022-12-13T07:55:15;14.40;;;7.97;;
15043;SDS011;7619;48.562;8.910;2022-12-13T07:57:46;14.80;;;8.30;;
15043;SDS011;7619;48.562;8.910;2022-12-13T08:00:16;12.40;;;6.57;;
15043;SDS011;7619;48.562;8.910;2022-12-13T08:02:45;21.83;;;8.37;;
15043;SDS011;7619;48.562;8.910;2022-12-13T08:07:51;11.67;;;7.33;;
15043;SDS011;7619;48.562;8.910;2022-12-13T08:10:20;11.73;;;6.40;;
15043;SDS011;7619;48.562;8.910;2022-12-13T08:12:58;14.00;;;6.60;;
15043;SDS011;7619;48.562;8.910;2022-12-13T08:15:29;16.27;;;8.17;;
15043;SDS011;7619;48.562;8.910;2022-12-13T08:17:58;16.33;;;8.43;;
15043;SDS011;7619;48.562;8.910;2022-12-13T08:20:29;11.47;;;7.20;;
15043;SDS011;7619;48.562;8.910;2022-12-13T08:22:58;13.30;;;7.40;;
15043;SDS011;7619;48.562;8.910;2022-12-13T08:25:27;11.83;;;7.00;;
15043;SDS011;7619;48.562;8.910;2022-12-13T08:27:56;12.90;;;6.53;;
15043;SDS011;7619;48.562;8.910;2022-12-13T08:30:25;15.03;;;7.33;;
15043;SDS011;7619;48.562;8.910;2022-12-13T08:32:55;12.43;;;7.47;;
15043;SDS011;7619;48.562;8.910;2022-12-13T08:35:26;18.63;;;9.60;;
15043;SDS011;7619;48.562;8.910;2022-12-13T08:37:55;16.70;;;8.50;;
15043;SDS011;7619;48.562;8.910;2022-12-13T08:40:24;12.70;;;7.57;;
15043;SDS011;7619;48.562;8.910;2022-12-13T08:42:54;13.67;;;7.00;;
15043;SDS011;7619;48.562;8.910;2022-12-13T08:45:23;18.00;;;8.40;;
15043;SDS011;7619;48.562;8.910;2022-12-13T08:47:53;17.63;;;8.50;;
15043;SDS011;7619;48.562;8.910;2022-12-13T08:50:23;13.33;;;7.43;;
15043;SDS011;7619;48.562;8.910;2022-12-13T08:52:52;15.80;;;8.97;;
15043;SDS011;7619;48.562;8.910;2022-12-13T08:55:22;19.37;;;9.57;;
15043;SDS011;7619;48.562;8.910;2022-12-13T08:57:51;15.33;;;7.50;;
15043;SDS011;7619;48.562;8.910;2022-12-13T09:00:20;14.37;;;7.67;;
15043;SDS011;7619;48.562;8.910;2022-12-13T09:02:49;13.60;;;6.17;;
15043;SDS011;7619;48.562;8.910;2022-12-13T09:07:56;19.67;;;7.93;;
15043;SDS011;7619;48.562;8.910;2022-12-13T09:10:27;16.87;;;8.80;;
15043;SDS011;7619;48.562;8.910;2022-12-13T09:12:56;14.20;;;8.07;;
15043;SDS011;7619;48.562;8.910;2022-12-13T09:15:26;14.33;;;8.10;;
15043;SDS011;7619;48.562;8.910;2022-12-13T09:17:56;18.87;;;9.53;;
15043;SDS011;7619;48.562;8.910;2022-12-13T09:20:25;11.97;;;7.83;;
15043;SDS011;7619;48.562;8.910;2022-12-13T09:22:55;17.73;;;9.20;;
15043;SDS011;7619;48.562;8.910;2022-12-13T09:25:24;19.73;;;10.80;;
15043;SDS011;7619;48.562;8.910;2022-12-13T09:27:53;41.73;;;19.77;;
15043;SDS011;7619;48.562;8.910;2022-12-13T09:32:59;22.50;;;11.07;;
15043;SDS011;7619;48.562;8.910;2022-12-13T09:38:05;21.07;;;10.97;;
15043;SDS011;7619;48.562;8.910;2022-12-13T09:40:34;23.50;;;10.93;;
15043;SDS011;7619;48.562;8.910;2022-12-13T09:45:42;18.67;;;11.13;;
15043;SDS011;7619;48.562;8.910;2022-12-13T09:48:14;20.40;;;11.47;;
15043;SDS011;7619;48.562;8.910;2022-12-13T09:50:46;22.20;;;11.57;;
15043;SDS011;7619;48.562;8.910;2022-12-13T09:53:16;20.37;;;11.70;;
15043;SDS011;7619;48.562;8.910;2022-12-13T09:55:55;19.83;;;11.33;;
15043;SDS011;7619;48.562;8.910;2022-12-13T10:01:01;21.60;;;10.10;;
15043;SDS011;7619;48.562;8.910;2022-12-13T10:06:12;23.13;;;11.07;;
15043;SDS011;7619;48.562;8.910;2022-12-13T10:08:43;25.40;;;10.93;;
15043;SDS011;7619;48.562;8.910;2022-12-13T10:11:21;19.67;;;11.83;;
15043;SDS011;7619;48.562;8.910;2022-12-13T10:13:53;20.20;;;11.17;;
15043;SDS011;7619;48.562;8.910;2022-12-13T10:16:24;17.57;;;11.00;;
15043;SDS011;7619;48.562;8.910;2022-12-13T10:18:56;20.87;;;12.10;;
15043;SDS011;7619;48.562;8.910;2022-12-13T10:21:26;22.70;;;13.50;;
15043;SDS011;7619;48.562;8.910;2022-12-13T10:24:00;32.43;;;12.77;;
15043;SDS011;7619;48.562;8.910;2022-12-13T10:26:34;17.77;;;11.57;;
15043;SDS011;7619;48.562;8.910;2022-12-13T10:29:05;18.87;;;10.97;;
15043;SDS011;7619;48.562;8.910;2022-12-13T10:31:38;31.57;;;9.03;;
15043;SDS011;7619;48.562;8.910;2022-12-13T10:34:15;14.67;;;8.80;;
15043;SDS011;7619;48.562;8.910;2022-12-13T10:36:47;14.60;;;9.43;;
15043;SDS011;7619;48.562;8.910;2022-12-13T10:39:18;14.23;;;8.20;;
15043;SDS011;7619;48.562;8.910;2022-12-13T10:41:48;12.90;;;7.13;;
15043;SDS011;7619;48.562;8.910;2022-12-13T10:44:28;12.83;;;7.97;;
15043;SDS011;7619;48.562;8.910;2022-12-13T10:47:02;11.27;;;6.60;;
15043;SDS011;7619;48.562;8.910;2022-12-13T10:49:38;12.80;;;7.13;;
15043;SDS011;7619;48.562;8.910;2022-12-13T10:52:19;15.20;;;8.33;;
15043;SDS011;7619;48.562;8.910;2022-12-13T10:54:52;11.43;;;7.23;;
15043;SDS011;7619;48.562;8.910;2022-12-13T10:57:22;13.03;;;8.07;;
15043;SDS011;7619;48.562;8.910;2022-12-13T10:59:52;16.10;;;8.53;;
15043;SDS011;7619;48.562;8.910;2022-12-13T11:02:26;13.77;;;7.67;;
15043;SDS011;7619;48.562;8.910;2022-12-13T11:04:57;12.90;;;6.93;;
15043;SDS011;7619;48.562;8.910;2022-12-13T11:07:28;16.63;;;7.80;;
15043;SDS011;7619;48.562;8.910;2022-12-13T11:10:15;12.80;;;7.27;;
15043;SDS011;7619;48.562;8.910;2022-12-13T11:12:43;13.30;;;8.13;;
15043;SDS011;7619;48.562;8.910;2022-12-13T11:15:14;14.20;;;7.63;;
15043;SDS011;7619;48.562;8.910;2022-12-13T11:17:46;13.27;;;7.40;;
15043;SDS011;7619;48.562;8.910;2022-12-13T11:20:18;10.63;;;7.10;;
15043;SDS011;7619;48.562;8.910;2022-12-13T11:22:57;16.53;;;8.97;;
15043;SDS011;7619;48.562;8.910;2022-12-13T11:25:28;12.43;;;6.83;;
15043;SDS011;7619;48.562;8.910;2022-12-13T11:28:02;10.57;;;5.97;;
15043;SDS011;7619;48.562;8.910;2022-12-13T11:30:37;9.57;;;5.83;;
15043;SDS011;7619;48.562;8.910;2022-12-13T11:33:12;10.83;;;6.50;;
15043;SDS011;7619;48.562;8.910;2022-12-13T11:35:50;10.60;;;6.30;;
15043;SDS011;7619;48.562;8.910;2022-12-13T11:38:25;13.17;;;6.43;;
15043;SDS011;7619;48.562;8.910;2022-12-13T11:40:58;10.00;;;7.00;;
15043;SDS011;7619;48.562;8.910;2022-12-13T11:43:32;10.13;;;5.60;;
15043;SDS011;7619;48.562;8.910;2022-12-13T11:46:05;9.63;;;5.83;;
15043;SDS011;7619;48.562;8.910;2022-12-13T11:48:42;11.80;;;6.70;;
15043;SDS011;7619;48.562;8.910;2022-12-13T11:51:13;12.20;;;7.47;;
15043;SDS011;7619;48.562;8.910;2022-12-13T11:53:48;11.93;;;6.93;;
15043;SDS011;7619;48.562;8.910;2022-12-13T11:56:22;15.53;;;6.87;;
15043;SDS011;7619;48.562;8.910;2022-12-13T11:58:55;12.00;;;6.80;;
15043;SDS011;7619;48.562;8.910;2022-12-13T12:01:29;14.47;;;7.40;;
15043;SDS011;7619;48.562;8.910;2022-12-13T12:04:11;18.47;;;7.17;;
15043;SDS011;7619;48.562;8.910;2022-12-13T12:06:46;15.23;;;6.77;;
15043;SDS011;7619;48.562;8.910;2022-12-13T12:09:18;17.83;;;6.57;;
15043;SDS011;7619;48.562;8.910;2022-12-13T12:11:50;13.20;;;7.60;;
15043;SDS011;7619;48.562;8.910;2022-12-13T12:14:23;16.47;;;7.40;;
15043;SDS011;7619;48.562;8.910;2022-12-13T12:16:57;13.43;;;8.00;;
15043;SDS011;7619;48.562;8.910;2022-12-13T12:19:32;14.73;;;7.10;;
15043;SDS011;7619;48.562;8.910;2022-12-13T12:22:02;11.80;;;6.67;;
15043;SDS011;7619;48.562;8.910;2022-12-13T12:24:41;9.77;;;6.60;;
15043;SDS011;7619;48.562;8.910;2022-12-13T12:27:21;14.20;;;7.20;;
15043;SDS011;7619;48.562;8.910;2022-12-13T12:29:56;9.53;;;6.27;;
15043;SDS011;7619;48.562;8.910;2022-12-13T12:32:33;10.40;;;6.23;;
15043;SDS011;7619;48.562;8.910;2022-12-13T12:35:14;11.73;;;6.13;;
15043;SDS011;7619;48.562;8.910;2022-12-13T12:37:56;14.63;;;7.17;;
15043;SDS011;7619;48.562;8.910;2022-12-13T12:43:21;10.73;;;5.57;;
15043;SDS011;7619;48.562;8.910;2022-12-13T12:45:55;10.17;;;5.57;;
15043;SDS011;7619;48.562;8.910;2022-12-13T12:48:41;8.03;;;5.17;;
15043;SDS011;7619;48.562;8.910;2022-12-13T12:51:20;8.93;;;5.20;;
15043;SDS011;7619;48.562;8.910;2022-12-13T12:53:52;8.30;;;5.27;;
15043;SDS011;7619;48.562;8.910;2022-12-13T12:56:26;6.83;;;4.30;;
15043;SDS011;7619;48.562;8.910;2022-12-13T12:59:00;7.30;;;4.93;;
15043;SDS011;7619;48.562;8.910;2022-12-13T13:01:36;7.50;;;4.67;;
15043;SDS011;7619;48.562;8.910;2022-12-13T13:04:13;8.83;;;4.97;;
15043;SDS011;7619;48.562;8.910;2022-12-13T13:06:45;9.77;;;6.10;;
15043;SDS011;7619;48.562;8.910;2022-12-13T13:09:16;13.77;;;4.90;;
15043;SDS011;7619;48.562;8.910;2022-12-13T13:11:46;9.43;;;5.77;;
15043;SDS011;7619;48.562;8.910;2022-12-13T13:14:27;10.90;;;5.97;;
15043;SDS011;7619;48.562;8.910;2022-12-13T13:16:58;9.83;;;4.93;;
15043;SDS011;7619;48.562;8.910;2022-12-13T13:19:39;12.97;;;6.07;;
15043;SDS011;7619;48.562;8.910;2022-12-13T13:22:25;8.87;;;5.77;;
15043;SDS011;7619;48.562;8.910;2022-12-13T13:25:12;8.30;;;4.67;;
15043;SDS011;7619;48.562;8.910;2022-12-13T13:27:48;10.43;;;5.97;;
15043;SDS011;7619;48.562;8.910;2022-12-13T13:30:19;9.30;;;5.17;;
15043;SDS011;7619;48.562;8.910;2022-12-13T13:32:50;8.13;;;4.57;;
15043;SDS011;7619;48.562;8.910;2022-12-13T13:38:28;7.53;;;4.50;;
15043;SDS011;7619;48.562;8.910;2022-12-13T13:41:38;10.80;;;4.87;;
15043;SDS011;7619;48.562;8.910;2022-12-13T13:44:31;10.27;;;5.23;;
15043;SDS011;7619;48.562;8.910;2022-12-13T13:47:29;8.83;;;5.53;;
15043;SDS011;7619;48.562;8.910;2022-12-13T13:50:17;10.17;;;5.00;;
15043;SDS011;7619;48.562;8.910;2022-12-13T13:53:02;9.23;;;5.23;;
15043;SDS011;7619;48.562;8.910;2022-12-13T13:55:45;6.73;;;4.87;;
15043;SDS011;7619;48.562;8.910;2022-12-13T13:58:22;10.57;;;4.63;;
15043;SDS011;7619;48.562;8.910;2022-12-13T14:01:07;8.07;;;4.30;;
15043;SDS011;7619;48.562;8.910;2022-12-13T14:04:04;8.37;;;5.50;;
15043;SDS011;7619;48.562;8.910;2022-12-13T14:06:48;8.00;;;5.27;;
15043;SDS011;7619;48.562;8.910;2022-12-13T14:12:52;9.33;;;5.73;;
15043;SDS011;7619;48.562;8.910;2022-12-13T14:15:46;7.73;;;4.77;;
15043;SDS011;7619;48.562;8.910;2022-12-13T14:18:52;9.50;;;5.37;;
15043;SDS011;7619;48.562;8.910;2022-12-13T14:21:46;8.33;;;5.23;;
15043;SDS011;7619;48.562;8.910;2022-12-13T14:24:26;10.03;;;5.20;;
15043;SDS011;7619;48.562;8.910;2022-12-13T14:27:02;8.60;;;4.97;;
15043;SDS011;7619;48.562;8.910;2022-12-13T14:29:37;8.60;;;4.27;;
15043;SDS011;7619;48.562;8.910;2022-12-13T14:32:33;8.03;;;4.60;;
15043;SDS011;7619;48.562;8.910;2022-12-13T14:35:03;11.73;;;5.37;;
15043;SDS011;7619;48.562;8.910;2022-12-13T14:37:33;8.13;;;4.80;;
15043;SDS011;7619;48.562;8.910;2022-12-13T14:40:23;9.73;;;4.70;;
15043;SDS011;7619;48.562;8.910;2022-12-13T14:42:51;6.40;;;4.60;;
15043;SDS011;7619;48.562;8.910;2022-12-13T14:45:21;8.17;;;5.07;;
15043;SDS011;7619;48.562;8.910;2022-12-13T14:47:55;9.93;;;5.07;;
15043;SDS011;7619;48.562;8.910;2022-12-13T14:50:26;9.27;;;4.77;;
15043;SDS011;7619;48.562;8.910;2022-12-13T14:52:57;12.33;;;5.07;;
15043;SDS011;7619;48.562;8.910;2022-12-13T14:55:29;7.03;;;4.90;;
15043;SDS011;7619;48.562;8.910;2022-12-13T14:58:02;10.17;;;5.00;;
15043;SDS011;7619;48.562;8.910;2022-12-13T15:00:41;8.43;;;4.30;;
15043;SDS011;7619;48.562;8.910;2022-12-13T15:03:19;8.47;;;4.57;;
15043;SDS011;7619;48.562;8.910;2022-12-13T15:05:51;7.40;;;3.87;;
15043;SDS011;7619;48.562;8.910;2022-12-13T15:08:22;7.57;;;4.57;;
15043;SDS011;7619;48.562;8.910;2022-12-13T15:10:52;8.97;;;4.50;;
15043;SDS011;7619;48.562;8.910;2022-12-13T15:13:25;9.23;;;5.03;;
15043;SDS011;7619;48.562;8.910;2022-12-13T15:15:57;11.20;;;5.63;;
15043;SDS011;7619;48.562;8.910;2022-12-13T15:18:28;10.23;;;5.77;;
15043;SDS011;7619;48.562;8.910;2022-12-13T15:20:58;7.90;;;4.80;;
15043;SDS011;7619;48.562;8.910;2022-12-13T15:23:28;10.30;;;5.03;;
15043;SDS011;7619;48.562;8.910;2022-12-13T15:25:59;8.77;;;4.67;;
15043;SDS011;7619;48.562;8.910;2022-12-13T15:28:30;7.53;;;4.80;;
15043;SDS011;7619;48.562;8.910;2022-12-13T15:31:01;8.50;;;4.60;;
15043;SDS011;7619;48.562;8.910;2022-12-13T15:33:32;8.97;;;5.47;;
15043;SDS011;7619;48.562;8.910;2022-12-13T15:36:03;9.33;;;4.70;;
15043;SDS011;7619;48.562;8.910;2022-12-13T15:38:36;6.13;;;4.40;;
15043;SDS011;7619;48.562;8.910;2022-12-13T15:41:12;9.33;;;5.40;;
15043;SDS011;7619;48.562;8.910;2022-12-13T15:43:44;8.47;;;4.93;;
15043;SDS011;7619;48.562;8.910;2022-12-13T15:46:22;11.03;;;6.33;;
15043;SDS011;7619;48.562;8.910;2022-12-13T15:48:52;6.70;;;4.97;;
15043;SDS011;7619;48.562;8.910;2022-12-13T15:51:23;8.80;;;4.97;;
15043;SDS011;7619;48.562;8.910;2022-12-13T15:54:06;17.60;;;8.03;;
15043;SDS011;7619;48.562;8.910;2022-12-13T15:56:58;13.47;;;7.73;;